Terminal Aerodrome Forecast
Issued by NWS

Home | Current Version | Previous Version | Text Only | Print | Product List | Glossary On
Versions: 1 2 3 4 5 6 7 8 9 10 11 12 13 14 15 16
177
FTUS46 KMTR 271729
TAFSJC
TAF
KSJC 271729Z 2718/2818 31011KT P6SM FEW035
     FM272100 30015G22KT P6SM FEW035
     FM280400 31009KT P6SM FEW030
     FM280800 VRB04KT P6SM SKC
     FM281500 29009KT P6SM SKC=

USA.gov is the U.S. government's official web portal to all federal, state and local government web resources and services.